sensor_id;sensor_type;location;lat;lon;timestamp;P1;durP1;ratioP1;P2;durP2;ratioP2
1831;SDS011;1680;48.106;11.708;2022-08-25T00:00:26;5.00;;;4.60;;
1831;SDS011;1680;48.106;11.708;2022-08-25T00:02:53;4.10;;;3.80;;
1831;SDS011;1680;48.106;11.708;2022-08-25T00:05:19;4.67;;;4.30;;
1831;SDS011;1680;48.106;11.708;2022-08-25T00:07:46;5.20;;;4.80;;
1831;SDS011;1680;48.106;11.708;2022-08-25T00:10:13;4.97;;;4.47;;
1831;SDS011;1680;48.106;11.708;2022-08-25T00:12:40;5.40;;;4.90;;
1831;SDS011;1680;48.106;11.708;2022-08-25T00:15:08;5.20;;;4.80;;
1831;SDS011;1680;48.106;11.708;2022-08-25T00:17:35;5.63;;;4.70;;
1831;SDS011;1680;48.106;11.708;2022-08-25T00:20:02;4.87;;;4.47;;
1831;SDS011;1680;48.106;11.708;2022-08-25T00:22:29;5.30;;;4.90;;
1831;SDS011;1680;48.106;11.708;2022-08-25T00:24:56;4.50;;;4.10;;
1831;SDS011;1680;48.106;11.708;2022-08-25T00:27:22;4.83;;;4.43;;
1831;SDS011;1680;48.106;11.708;2022-08-25T00:29:51;4.87;;;4.47;;
1831;SDS011;1680;48.106;11.708;2022-08-25T00:32:18;5.33;;;4.83;;
1831;SDS011;1680;48.106;11.708;2022-08-25T00:34:45;4.87;;;4.47;;
1831;SDS011;1680;48.106;11.708;2022-08-25T00:37:12;4.93;;;4.53;;
1831;SDS011;1680;48.106;11.708;2022-08-25T00:39:39;5.60;;;5.10;;
1831;SDS011;1680;48.106;11.708;2022-08-25T00:42:06;4.80;;;4.40;;
1831;SDS011;1680;48.106;11.708;2022-08-25T00:44:33;5.10;;;4.70;;
1831;SDS011;1680;48.106;11.708;2022-08-25T00:47:02;10.23;;;4.63;;
1831;SDS011;1680;48.106;11.708;2022-08-25T00:49:30;5.23;;;4.80;;
1831;SDS011;1680;48.106;11.708;2022-08-25T00:51:58;5.70;;;5.20;;
1831;SDS011;1680;48.106;11.708;2022-08-25T00:54:26;5.43;;;5.00;;
1831;SDS011;1680;48.106;11.708;2022-08-25T00:56:53;5.20;;;4.73;;
1831;SDS011;1680;48.106;11.708;2022-08-25T00:59:21;5.10;;;4.70;;
1831;SDS011;1680;48.106;11.708;2022-08-25T01:01:48;5.43;;;5.03;;
1831;SDS011;1680;48.106;11.708;2022-08-25T01:04:17;5.07;;;4.67;;
1831;SDS011;1680;48.106;11.708;2022-08-25T01:06:44;4.60;;;4.30;;
1831;SDS011;1680;48.106;11.708;2022-08-25T01:09:11;5.40;;;4.90;;
1831;SDS011;1680;48.106;11.708;2022-08-25T01:11:38;4.97;;;4.57;;
1831;SDS011;1680;48.106;11.708;2022-08-25T01:14:05;5.30;;;4.80;;
1831;SDS011;1680;48.106;11.708;2022-08-25T01:16:32;5.63;;;5.13;;
1831;SDS011;1680;48.106;11.708;2022-08-25T01:18:59;4.97;;;4.57;;
1831;SDS011;1680;48.106;11.708;2022-08-25T01:21:28;4.97;;;4.57;;
1831;SDS011;1680;48.106;11.708;2022-08-25T01:23:55;5.20;;;4.80;;
1831;SDS011;1680;48.106;11.708;2022-08-25T01:26:23;5.50;;;5.03;;
1831;SDS011;1680;48.106;11.708;2022-08-25T01:28:50;5.43;;;5.00;;
1831;SDS011;1680;48.106;11.708;2022-08-25T01:31:43;5.57;;;5.07;;
1831;SDS011;1680;48.106;11.708;2022-08-25T01:34:10;5.10;;;4.70;;
1831;SDS011;1680;48.106;11.708;2022-08-25T01:36:38;5.20;;;4.70;;
1831;SDS011;1680;48.106;11.708;2022-08-25T01:39:05;5.00;;;4.60;;
1831;SDS011;1680;48.106;11.708;2022-08-25T01:41:34;5.53;;;5.10;;
1831;SDS011;1680;48.106;11.708;2022-08-25T01:44:05;5.37;;;4.87;;
1831;SDS011;1680;48.106;11.708;2022-08-25T01:46:32;6.50;;;5.33;;
1831;SDS011;1680;48.106;11.708;2022-08-25T01:49:00;5.40;;;4.90;;
1831;SDS011;1680;48.106;11.708;2022-08-25T01:51:28;5.33;;;4.93;;
1831;SDS011;1680;48.106;11.708;2022-08-25T01:53:57;4.70;;;4.30;;
1831;SDS011;1680;48.106;11.708;2022-08-25T01:56:23;4.90;;;4.50;;
1831;SDS011;1680;48.106;11.708;2022-08-25T01:58:50;5.90;;;5.40;;
1831;SDS011;1680;48.106;11.708;2022-08-25T02:01:18;5.93;;;5.43;;
1831;SDS011;1680;48.106;11.708;2022-08-25T02:03:45;4.93;;;4.53;;
1831;SDS011;1680;48.106;11.708;2022-08-25T02:06:12;6.07;;;5.47;;
1831;SDS011;1680;48.106;11.708;2022-08-25T02:08:39;5.70;;;5.20;;
1831;SDS011;1680;48.106;11.708;2022-08-25T02:11:10;5.73;;;5.23;;
1831;SDS011;1680;48.106;11.708;2022-08-25T02:13:37;5.47;;;4.97;;
1831;SDS011;1680;48.106;11.708;2022-08-25T02:16:04;5.80;;;5.27;;
1831;SDS011;1680;48.106;11.708;2022-08-25T02:18:31;6.17;;;5.67;;
1831;SDS011;1680;48.106;11.708;2022-08-25T02:20:58;5.80;;;5.30;;
1831;SDS011;1680;48.106;11.708;2022-08-25T02:23:24;5.57;;;5.07;;
1831;SDS011;1680;48.106;11.708;2022-08-25T02:25:51;5.40;;;5.00;;
1831;SDS011;1680;48.106;11.708;2022-08-25T02:28:19;5.47;;;4.97;;
1831;SDS011;1680;48.106;11.708;2022-08-25T02:30:46;5.10;;;4.70;;
1831;SDS011;1680;48.106;11.708;2022-08-25T02:33:13;5.80;;;5.30;;
1831;SDS011;1680;48.106;11.708;2022-08-25T02:35:39;5.30;;;4.90;;
1831;SDS011;1680;48.106;11.708;2022-08-25T02:38:06;6.10;;;5.50;;
1831;SDS011;1680;48.106;11.708;2022-08-25T02:40:32;5.37;;;4.87;;
1831;SDS011;1680;48.106;11.708;2022-08-25T02:43:00;5.70;;;5.20;;
1831;SDS011;1680;48.106;11.708;2022-08-25T02:45:28;5.30;;;4.90;;
1831;SDS011;1680;48.106;11.708;2022-08-25T02:47:54;5.70;;;5.20;;
1831;SDS011;1680;48.106;11.708;2022-08-25T02:50:21;5.63;;;5.23;;
1831;SDS011;1680;48.106;11.708;2022-08-25T02:52:47;6.30;;;5.70;;
1831;SDS011;1680;48.106;11.708;2022-08-25T02:55:16;5.20;;;4.80;;
1831;SDS011;1680;48.106;11.708;2022-08-25T02:57:42;5.30;;;4.80;;
1831;SDS011;1680;48.106;11.708;2022-08-25T03:00:09;5.23;;;4.80;;
1831;SDS011;1680;48.106;11.708;2022-08-25T03:02:38;5.70;;;5.27;;
1831;SDS011;1680;48.106;11.708;2022-08-25T03:05:05;5.87;;;5.37;;
1831;SDS011;1680;48.106;11.708;2022-08-25T03:07:33;5.60;;;5.10;;
1831;SDS011;1680;48.106;11.708;2022-08-25T03:10:02;6.30;;;5.70;;
1831;SDS011;1680;48.106;11.708;2022-08-25T03:12:29;6.07;;;5.50;;
1831;SDS011;1680;48.106;11.708;2022-08-25T03:14:56;6.60;;;6.00;;
1831;SDS011;1680;48.106;11.708;2022-08-25T03:17:22;6.37;;;5.80;;
1831;SDS011;1680;48.106;11.708;2022-08-25T03:19:50;6.07;;;5.47;;
1831;SDS011;1680;48.106;11.708;2022-08-25T03:22:17;6.77;;;6.13;;
1831;SDS011;1680;48.106;11.708;2022-08-25T03:24:43;6.07;;;5.57;;
1831;SDS011;1680;48.106;11.708;2022-08-25T03:27:10;5.60;;;5.20;;
1831;SDS011;1680;48.106;11.708;2022-08-25T03:29:35;6.53;;;5.90;;
1831;SDS011;1680;48.106;11.708;2022-08-25T03:32:02;6.40;;;5.90;;
1831;SDS011;1680;48.106;11.708;2022-08-25T03:34:29;6.20;;;5.60;;
1831;SDS011;1680;48.106;11.708;2022-08-25T03:36:57;5.80;;;5.37;;
1831;SDS011;1680;48.106;11.708;2022-08-25T03:39:24;5.90;;;5.17;;
1831;SDS011;1680;48.106;11.708;2022-08-25T03:41:51;6.10;;;5.53;;
1831;SDS011;1680;48.106;11.708;2022-08-25T03:44:18;5.80;;;5.30;;
1831;SDS011;1680;48.106;11.708;2022-08-25T03:46:46;6.50;;;5.90;;
1831;SDS011;1680;48.106;11.708;2022-08-25T03:49:14;5.63;;;5.13;;
1831;SDS011;1680;48.106;11.708;2022-08-25T03:51:44;5.63;;;5.23;;
1831;SDS011;1680;48.106;11.708;2022-08-25T03:54:13;5.37;;;4.87;;
1831;SDS011;1680;48.106;11.708;2022-08-25T03:56:39;6.20;;;5.70;;
1831;SDS011;1680;48.106;11.708;2022-08-25T03:59:06;5.53;;;5.03;;
1831;SDS011;1680;48.106;11.708;2022-08-25T04:01:34;5.90;;;5.40;;
1831;SDS011;1680;48.106;11.708;2022-08-25T04:04:01;7.60;;;5.73;;
1831;SDS011;1680;48.106;11.708;2022-08-25T04:06:27;5.90;;;5.40;;
1831;SDS011;1680;48.106;11.708;2022-08-25T04:08:54;5.73;;;5.23;;
1831;SDS011;1680;48.106;11.708;2022-08-25T04:11:24;6.37;;;5.77;;
1831;SDS011;1680;48.106;11.708;2022-08-25T04:13:51;7.13;;;6.53;;
1831;SDS011;1680;48.106;11.708;2022-08-25T04:16:19;6.50;;;5.90;;
1831;SDS011;1680;48.106;11.708;2022-08-25T04:18:47;7.80;;;7.10;;
1831;SDS011;1680;48.106;11.708;2022-08-25T04:21:14;6.63;;;6.03;;
1831;SDS011;1680;48.106;11.708;2022-08-25T04:23:42;8.50;;;6.50;;
1831;SDS011;1680;48.106;11.708;2022-08-25T04:26:10;7.33;;;6.60;;
1831;SDS011;1680;48.106;11.708;2022-08-25T04:28:39;6.93;;;6.33;;
1831;SDS011;1680;48.106;11.708;2022-08-25T04:31:06;6.37;;;5.87;;
1831;SDS011;1680;48.106;11.708;2022-08-25T04:33:33;7.13;;;6.43;;
1831;SDS011;1680;48.106;11.708;2022-08-25T04:35:59;6.80;;;6.20;;
1831;SDS011;1680;48.106;11.708;2022-08-25T04:38:26;6.60;;;6.00;;
1831;SDS011;1680;48.106;11.708;2022-08-25T04:40:55;6.43;;;5.83;;
1831;SDS011;1680;48.106;11.708;2022-08-25T04:43:22;6.70;;;5.83;;
1831;SDS011;1680;48.106;11.708;2022-08-25T04:45:50;6.90;;;6.27;;
1831;SDS011;1680;48.106;11.708;2022-08-25T04:48:16;6.20;;;5.70;;
1831;SDS011;1680;48.106;11.708;2022-08-25T04:50:43;5.73;;;5.20;;
1831;SDS011;1680;48.106;11.708;2022-08-25T04:53:10;6.57;;;5.97;;
1831;SDS011;1680;48.106;11.708;2022-08-25T04:55:38;6.27;;;5.67;;
1831;SDS011;1680;48.106;11.708;2022-08-25T04:58:05;6.63;;;6.00;;
1831;SDS011;1680;48.106;11.708;2022-08-25T05:00:32;6.97;;;6.30;;
1831;SDS011;1680;48.106;11.708;2022-08-25T05:03:01;6.87;;;6.27;;
1831;SDS011;1680;48.106;11.708;2022-08-25T05:05:27;8.40;;;6.37;;
1831;SDS011;1680;48.106;11.708;2022-08-25T05:07:54;6.33;;;5.83;;
1831;SDS011;1680;48.106;11.708;2022-08-25T05:10:22;6.30;;;5.70;;
1831;SDS011;1680;48.106;11.708;2022-08-25T05:12:48;6.13;;;5.57;;
1831;SDS011;1680;48.106;11.708;2022-08-25T05:15:15;6.70;;;6.10;;
1831;SDS011;1680;48.106;11.708;2022-08-25T05:18:00;7.23;;;6.40;;
1831;SDS011;1680;48.106;11.708;2022-08-25T05:20:27;6.27;;;5.67;;
1831;SDS011;1680;48.106;11.708;2022-08-25T05:22:55;7.10;;;6.13;;
1831;SDS011;1680;48.106;11.708;2022-08-25T05:25:21;6.47;;;5.97;;
1831;SDS011;1680;48.106;11.708;2022-08-25T05:27:48;7.00;;;6.30;;
1831;SDS011;1680;48.106;11.708;2022-08-25T05:30:15;8.20;;;7.40;;
1831;SDS011;1680;48.106;11.708;2022-08-25T05:32:41;7.80;;;7.10;;
1831;SDS011;1680;48.106;11.708;2022-08-25T05:35:10;7.93;;;7.13;;
1831;SDS011;1680;48.106;11.708;2022-08-25T05:37:36;8.57;;;7.77;;
1831;SDS011;1680;48.106;11.708;2022-08-25T05:40:03;7.57;;;6.87;;
1831;SDS011;1680;48.106;11.708;2022-08-25T05:42:30;8.43;;;7.60;;
1831;SDS011;1680;48.106;11.708;2022-08-25T05:44:56;8.73;;;7.93;;
1831;SDS011;1680;48.106;11.708;2022-08-25T05:47:23;9.80;;;8.90;;
1831;SDS011;1680;48.106;11.708;2022-08-25T05:49:50;9.90;;;8.30;;
1831;SDS011;1680;48.106;11.708;2022-08-25T05:52:18;8.00;;;7.30;;
1831;SDS011;1680;48.106;11.708;2022-08-25T05:54:44;8.80;;;8.00;;
1831;SDS011;1680;48.106;11.708;2022-08-25T05:57:11;8.80;;;8.00;;
1831;SDS011;1680;48.106;11.708;2022-08-25T05:59:37;9.57;;;8.23;;
1831;SDS011;1680;48.106;11.708;2022-08-25T06:02:04;10.73;;;9.63;;
1831;SDS011;1680;48.106;11.708;2022-08-25T06:04:47;9.63;;;8.73;;
1831;SDS011;1680;48.106;11.708;2022-08-25T06:07:14;10.20;;;9.20;;
1831;SDS011;1680;48.106;11.708;2022-08-25T06:09:42;11.13;;;10.07;;
1831;SDS011;1680;48.106;11.708;2022-08-25T06:12:10;10.20;;;9.10;;
1831;SDS011;1680;48.106;11.708;2022-08-25T06:14:37;9.40;;;8.60;;
1831;SDS011;1680;48.106;11.708;2022-08-25T06:17:03;11.27;;;10.17;;
1831;SDS011;1680;48.106;11.708;2022-08-25T06:19:30;12.33;;;11.03;;
1831;SDS011;1680;48.106;11.708;2022-08-25T06:21:56;12.63;;;11.40;;
1831;SDS011;1680;48.106;11.708;2022-08-25T06:24:23;12.57;;;11.27;;
1831;SDS011;1680;48.106;11.708;2022-08-25T06:26:52;11.10;;;10.03;;
1831;SDS011;1680;48.106;11.708;2022-08-25T06:29:19;10.90;;;9.83;;
1831;SDS011;1680;48.106;11.708;2022-08-25T06:31:45;13.63;;;11.47;;
1831;SDS011;1680;48.106;11.708;2022-08-25T06:34:14;13.90;;;12.50;;
1831;SDS011;1680;48.106;11.708;2022-08-25T06:36:40;14.10;;;12.63;;
1831;SDS011;1680;48.106;11.708;2022-08-25T06:39:07;13.80;;;11.60;;
1831;SDS011;1680;48.106;11.708;2022-08-25T06:41:33;12.03;;;10.53;;
1831;SDS011;1680;48.106;11.708;2022-08-25T06:44:02;9.83;;;8.93;;
1831;SDS011;1680;48.106;11.708;2022-08-25T06:46:29;11.07;;;9.97;;
1831;SDS011;1680;48.106;11.708;2022-08-25T06:48:55;13.10;;;11.73;;
1831;SDS011;1680;48.106;11.708;2022-08-25T06:51:22;12.93;;;10.50;;
1831;SDS011;1680;48.106;11.708;2022-08-25T06:53:50;12.97;;;11.67;;
1831;SDS011;1680;48.106;11.708;2022-08-25T06:56:18;12.57;;;11.27;;
1831;SDS011;1680;48.106;11.708;2022-08-25T06:58:45;11.17;;;10.17;;
1831;SDS011;1680;48.106;11.708;2022-08-25T07:01:13;11.40;;;9.90;;
1831;SDS011;1680;48.106;11.708;2022-08-25T07:03:40;11.23;;;10.23;;
1831;SDS011;1680;48.106;11.708;2022-08-25T07:06:08;10.13;;;9.13;;
1831;SDS011;1680;48.106;11.708;2022-08-25T07:08:34;11.37;;;10.27;;
1831;SDS011;1680;48.106;11.708;2022-08-25T07:11:04;9.90;;;9.00;;
1831;SDS011;1680;48.106;11.708;2022-08-25T07:13:30;10.90;;;9.90;;
1831;SDS011;1680;48.106;11.708;2022-08-25T07:15:57;9.60;;;8.80;;
1831;SDS011;1680;48.106;11.708;2022-08-25T07:18:25;10.70;;;9.70;;
1831;SDS011;1680;48.106;11.708;2022-08-25T07:20:52;11.10;;;9.97;;
1831;SDS011;1680;48.106;11.708;2022-08-25T07:23:21;10.10;;;9.20;;
1831;SDS011;1680;48.106;11.708;2022-08-25T07:25:48;11.00;;;9.93;;
1831;SDS011;1680;48.106;11.708;2022-08-25T07:28:15;11.20;;;10.17;;
1831;SDS011;1680;48.106;11.708;2022-08-25T07:30:42;10.20;;;9.30;;
1831;SDS011;1680;48.106;11.708;2022-08-25T07:33:08;10.73;;;9.73;;
1831;SDS011;1680;48.106;11.708;2022-08-25T07:35:36;11.83;;;10.57;;
1831;SDS011;1680;48.106;11.708;2022-08-25T07:38:03;11.63;;;10.60;;
1831;SDS011;1680;48.106;11.708;2022-08-25T07:40:31;12.27;;;11.07;;
1831;SDS011;1680;48.106;11.708;2022-08-25T07:42:58;12.13;;;10.93;;
1831;SDS011;1680;48.106;11.708;2022-08-25T07:45:26;10.47;;;9.57;;
1831;SDS011;1680;48.106;11.708;2022-08-25T07:47:55;9.43;;;8.53;;
1831;SDS011;1680;48.106;11.708;2022-08-25T07:50:22;10.13;;;9.23;;
1831;SDS011;1680;48.106;11.708;2022-08-25T07:52:50;11.03;;;9.80;;
1831;SDS011;1680;48.106;11.708;2022-08-25T07:55:17;9.97;;;9.10;;
1831;SDS011;1680;48.106;11.708;2022-08-25T07:57:44;9.60;;;8.80;;
1831;SDS011;1680;48.106;11.708;2022-08-25T08:00:12;10.73;;;9.70;;
1831;SDS011;1680;48.106;11.708;2022-08-25T08:02:39;9.47;;;8.47;;
1831;SDS011;1680;48.106;11.708;2022-08-25T08:05:06;8.37;;;7.70;;
1831;SDS011;1680;48.106;11.708;2022-08-25T08:07:33;8.27;;;7.63;;
1831;SDS011;1680;48.106;11.708;2022-08-25T08:10:01;8.43;;;7.73;;
1831;SDS011;1680;48.106;11.708;2022-08-25T08:12:28;9.43;;;7.70;;
1831;SDS011;1680;48.106;11.708;2022-08-25T08:14:55;8.60;;;7.80;;
1831;SDS011;1680;48.106;11.708;2022-08-25T08:17:21;9.33;;;8.47;;
1831;SDS011;1680;48.106;11.708;2022-08-25T08:19:48;9.63;;;8.63;;
1831;SDS011;1680;48.106;11.708;2022-08-25T08:22:14;10.40;;;8.90;;
1831;SDS011;1680;48.106;11.708;2022-08-25T08:24:41;10.17;;;9.37;;
1831;SDS011;1680;48.106;11.708;2022-08-25T08:27:10;12.00;;;8.13;;
1831;SDS011;1680;48.106;11.708;2022-08-25T08:29:37;8.63;;;7.93;;
1831;SDS011;1680;48.106;11.708;2022-08-25T08:32:05;8.87;;;8.00;;
1831;SDS011;1680;48.106;11.708;2022-08-25T08:34:32;8.53;;;7.63;;
1831;SDS011;1680;48.106;11.708;2022-08-25T08:36:59;7.07;;;6.47;;
1831;SDS011;1680;48.106;11.708;2022-08-25T08:39:26;8.33;;;7.63;;
1831;SDS011;1680;48.106;11.708;2022-08-25T08:41:55;8.03;;;7.30;;
1831;SDS011;1680;48.106;11.708;2022-08-25T08:44:44;7.60;;;7.00;;
1831;SDS011;1680;48.106;11.708;2022-08-25T08:47:17;7.77;;;7.17;;
1831;SDS011;1680;48.106;11.708;2022-08-25T08:49:47;8.80;;;8.10;;
1831;SDS011;1680;48.106;11.708;2022-08-25T08:52:15;8.07;;;7.47;;
1831;SDS011;1680;48.106;11.708;2022-08-25T08:54:42;7.73;;;7.00;;
1831;SDS011;1680;48.106;11.708;2022-08-25T08:57:11;7.23;;;6.63;;
1831;SDS011;1680;48.106;11.708;2022-08-25T08:59:45;6.33;;;5.83;;
1831;SDS011;1680;48.106;11.708;2022-08-25T09:02:14;8.60;;;7.90;;
1831;SDS011;1680;48.106;11.708;2022-08-25T09:04:42;7.47;;;6.87;;
1831;SDS011;1680;48.106;11.708;2022-08-25T09:07:11;8.20;;;7.53;;
1831;SDS011;1680;48.106;11.708;2022-08-25T09:09:39;7.47;;;6.77;;
1831;SDS011;1680;48.106;11.708;2022-08-25T09:12:08;8.03;;;7.43;;
1831;SDS011;1680;48.106;11.708;2022-08-25T09:14:38;7.90;;;7.30;;
1831;SDS011;1680;48.106;11.708;2022-08-25T09:17:12;7.10;;;6.40;;
1831;SDS011;1680;48.106;11.708;2022-08-25T09:22:34;8.20;;;7.40;;
1831;SDS011;1680;48.106;11.708;2022-08-25T09:25:07;7.30;;;6.70;;
1831;SDS011;1680;48.106;11.708;2022-08-25T09:27:38;6.93;;;6.30;;
1831;SDS011;1680;48.106;11.708;2022-08-25T09:30:06;7.30;;;6.80;;
1831;SDS011;1680;48.106;11.708;2022-08-25T09:32:36;7.90;;;7.20;;
1831;SDS011;1680;48.106;11.708;2022-08-25T09:35:04;6.90;;;6.40;;
1831;SDS011;1680;48.106;11.708;2022-08-25T09:37:31;7.43;;;6.70;;
1831;SDS011;1680;48.106;11.708;2022-08-25T09:39:58;7.10;;;6.50;;
1831;SDS011;1680;48.106;11.708;2022-08-25T09:45:06;7.23;;;6.43;;
1831;SDS011;1680;48.106;11.708;2022-08-25T09:47:43;7.30;;;6.50;;
1831;SDS011;1680;48.106;11.708;2022-08-25T09:50:13;7.33;;;6.73;;
1831;SDS011;1680;48.106;11.708;2022-08-25T09:52:41;6.17;;;5.47;;
1831;SDS011;1680;48.106;11.708;2022-08-25T09:55:25;5.93;;;5.43;;
1831;SDS011;1680;48.106;11.708;2022-08-25T09:57:53;6.23;;;5.73;;
1831;SDS011;1680;48.106;11.708;2022-08-25T10:00:22;6.00;;;5.57;;
1831;SDS011;1680;48.106;11.708;2022-08-25T10:03:11;5.97;;;5.57;;
1831;SDS011;1680;48.106;11.708;2022-08-25T10:05:45;6.30;;;5.80;;
1831;SDS011;1680;48.106;11.708;2022-08-25T10:08:21;6.30;;;5.80;;
1831;SDS011;1680;48.106;11.708;2022-08-25T10:10:51;6.17;;;5.70;;
1831;SDS011;1680;48.106;11.708;2022-08-25T10:13:19;6.63;;;5.97;;
1831;SDS011;1680;48.106;11.708;2022-08-25T10:15:47;6.37;;;5.87;;
1831;SDS011;1680;48.106;11.708;2022-08-25T10:18:29;7.10;;;6.40;;
1831;SDS011;1680;48.106;11.708;2022-08-25T10:21:03;6.63;;;6.03;;
1831;SDS011;1680;48.106;11.708;2022-08-25T10:23:30;6.40;;;5.90;;
1831;SDS011;1680;48.106;11.708;2022-08-25T10:25:58;7.03;;;6.47;;
1831;SDS011;1680;48.106;11.708;2022-08-25T10:28:28;6.10;;;5.50;;
1831;SDS011;1680;48.106;11.708;2022-08-25T10:30:58;9.37;;;6.20;;
1831;SDS011;1680;48.106;11.708;2022-08-25T10:33:31;6.83;;;6.13;;
1831;SDS011;1680;48.106;11.708;2022-08-25T10:36:03;6.23;;;5.73;;
1831;SDS011;1680;48.106;11.708;2022-08-25T10:38:35;7.20;;;6.53;;
1831;SDS011;1680;48.106;11.708;2022-08-25T10:41:04;6.63;;;5.83;;
1831;SDS011;1680;48.106;11.708;2022-08-25T10:43:34;6.90;;;6.40;;
1831;SDS011;1680;48.106;11.708;2022-08-25T10:46:06;6.30;;;5.80;;
1831;SDS011;1680;48.106;11.708;2022-08-25T10:48:41;7.77;;;6.43;;
1831;SDS011;1680;48.106;11.708;2022-08-25T10:51:19;7.23;;;6.63;;
1831;SDS011;1680;48.106;11.708;2022-08-25T10:53:52;8.83;;;6.33;;
1831;SDS011;1680;48.106;11.708;2022-08-25T10:56:22;7.43;;;6.73;;
1831;SDS011;1680;48.106;11.708;2022-08-25T10:58:59;7.27;;;6.50;;
1831;SDS011;1680;48.106;11.708;2022-08-25T11:01:32;7.37;;;6.77;;
1831;SDS011;1680;48.106;11.708;2022-08-25T11:04:01;7.53;;;6.30;;
1831;SDS011;1680;48.106;11.708;2022-08-25T11:06:33;7.67;;;6.97;;
1831;SDS011;1680;48.106;11.708;2022-08-25T11:09:03;8.40;;;7.67;;
1831;SDS011;1680;48.106;11.708;2022-08-25T11:11:31;7.47;;;6.53;;
1831;SDS011;1680;48.106;11.708;2022-08-25T11:13:59;7.80;;;6.70;;
1831;SDS011;1680;48.106;11.708;2022-08-25T11:16:32;7.80;;;7.20;;
1831;SDS011;1680;48.106;11.708;2022-08-25T11:19:02;7.53;;;6.90;;
1831;SDS011;1680;48.106;11.708;2022-08-25T11:21:41;8.53;;;7.00;;
1831;SDS011;1680;48.106;11.708;2022-08-25T11:24:25;8.90;;;8.10;;
1831;SDS011;1680;48.106;11.708;2022-08-25T11:26:54;7.10;;;6.60;;
1831;SDS011;1680;48.106;11.708;2022-08-25T11:29:21;7.93;;;7.30;;
1831;SDS011;1680;48.106;11.708;2022-08-25T11:31:51;7.57;;;6.93;;
1831;SDS011;1680;48.106;11.708;2022-08-25T11:34:19;7.47;;;6.77;;
1831;SDS011;1680;48.106;11.708;2022-08-25T11:36:48;8.37;;;7.67;;
1831;SDS011;1680;48.106;11.708;2022-08-25T11:39:15;8.13;;;7.33;;
1831;SDS011;1680;48.106;11.708;2022-08-25T11:41:48;8.00;;;7.40;;
1831;SDS011;1680;48.106;11.708;2022-08-25T11:44:31;7.30;;;6.80;;
1831;SDS011;1680;48.106;11.708;2022-08-25T11:47:11;7.40;;;6.67;;
1831;SDS011;1680;48.106;11.708;2022-08-25T11:49:49;7.33;;;6.70;;
1831;SDS011;1680;48.106;11.708;2022-08-25T11:55:04;9.87;;;8.03;;
1831;SDS011;1680;48.106;11.708;2022-08-25T11:57:31;8.63;;;7.90;;
1831;SDS011;1680;48.106;11.708;2022-08-25T12:00:03;8.17;;;7.43;;
1831;SDS011;1680;48.106;11.708;2022-08-25T12:02:32;8.23;;;7.53;;
1831;SDS011;1680;48.106;11.708;2022-08-25T12:05:01;9.23;;;8.40;;
1831;SDS011;1680;48.106;11.708;2022-08-25T12:07:29;8.30;;;7.60;;
1831;SDS011;1680;48.106;11.708;2022-08-25T12:10:51;8.83;;;7.93;;
1831;SDS011;1680;48.106;11.708;2022-08-25T12:13:26;8.73;;;7.80;;
1831;SDS011;1680;48.106;11.708;2022-08-25T12:15:54;7.73;;;7.10;;
1831;SDS011;1680;48.106;11.708;2022-08-25T12:18:38;8.30;;;7.53;;
1831;SDS011;1680;48.106;11.708;2022-08-25T12:21:15;9.20;;;7.70;;
1831;SDS011;1680;48.106;11.708;2022-08-25T12:26:47;9.17;;;8.37;;
1831;SDS011;1680;48.106;11.708;2022-08-25T12:29:20;8.90;;;8.10;;
1831;SDS011;1680;48.106;11.708;2022-08-25T12:31:51;9.43;;;8.70;;
1831;SDS011;1680;48.106;11.708;2022-08-25T12:34:33;9.63;;;8.47;;
1831;SDS011;1680;48.106;11.708;2022-08-25T12:37:10;9.23;;;8.13;;
1831;SDS011;1680;48.106;11.708;2022-08-25T12:39:41;9.10;;;8.13;;
1831;SDS011;1680;48.106;11.708;2022-08-25T12:42:17;9.40;;;8.43;;
1831;SDS011;1680;48.106;11.708;2022-08-25T12:44:47;11.93;;;8.50;;
1831;SDS011;1680;48.106;11.708;2022-08-25T12:47:27;9.13;;;8.23;;
1831;SDS011;1680;48.106;11.708;2022-08-25T12:52:41;10.60;;;8.63;;
1831;SDS011;1680;48.106;11.708;2022-08-25T12:55:08;9.40;;;8.37;;
1831;SDS011;1680;48.106;11.708;2022-08-25T12:57:38;9.80;;;8.90;;
1831;SDS011;1680;48.106;11.708;2022-08-25T13:00:11;9.00;;;8.10;;
1831;SDS011;1680;48.106;11.708;2022-08-25T13:08:21;8.30;;;7.30;;
1831;SDS011;1680;48.106;11.708;2022-08-25T13:10:56;8.20;;;7.50;;
1831;SDS011;1680;48.106;11.708;2022-08-25T13:13:30;8.50;;;7.57;;
1831;SDS011;1680;48.106;11.708;2022-08-25T13:16:02;8.47;;;7.60;;
1831;SDS011;1680;48.106;11.708;2022-08-25T13:18:31;8.60;;;7.80;;
1831;SDS011;1680;48.106;11.708;2022-08-25T13:21:03;10.83;;;8.47;;
1831;SDS011;1680;48.106;11.708;2022-08-25T13:23:32;9.40;;;8.23;;
1831;SDS011;1680;48.106;11.708;2022-08-25T13:25:59;9.17;;;8.27;;
1831;SDS011;1680;48.106;11.708;2022-08-25T13:28:28;9.57;;;8.67;;
1831;SDS011;1680;48.106;11.708;2022-08-25T13:30:55;9.40;;;8.13;;
1831;SDS011;1680;48.106;11.708;2022-08-25T13:33:22;8.50;;;7.80;;
1831;SDS011;1680;48.106;11.708;2022-08-25T13:35:50;10.37;;;9.40;;
1831;SDS011;1680;48.106;11.708;2022-08-25T13:38:39;10.57;;;8.33;;
1831;SDS011;1680;48.106;11.708;2022-08-25T13:41:05;11.40;;;8.50;;
1831;SDS011;1680;48.106;11.708;2022-08-25T13:43:32;12.40;;;8.43;;
1831;SDS011;1680;48.106;11.708;2022-08-25T13:45:59;11.13;;;8.23;;
1831;SDS011;1680;48.106;11.708;2022-08-25T13:48:34;9.80;;;8.10;;
1831;SDS011;1680;48.106;11.708;2022-08-25T13:51:15;9.27;;;8.47;;
1831;SDS011;1680;48.106;11.708;2022-08-25T13:53:48;9.80;;;8.77;;
1831;SDS011;1680;48.106;11.708;2022-08-25T13:56:21;11.97;;;8.57;;
1831;SDS011;1680;48.106;11.708;2022-08-25T13:58:48;9.63;;;8.70;;
1831;SDS011;1680;48.106;11.708;2022-08-25T14:01:16;8.97;;;8.17;;
1831;SDS011;1680;48.106;11.708;2022-08-25T14:03:45;10.60;;;8.97;;
1831;SDS011;1680;48.106;11.708;2022-08-25T14:06:17;11.30;;;9.57;;
1831;SDS011;1680;48.106;11.708;2022-08-25T14:08:45;9.43;;;8.63;;
1831;SDS011;1680;48.106;11.708;2022-08-25T14:11:14;12.17;;;9.10;;
1831;SDS011;1680;48.106;11.708;2022-08-25T14:13:41;9.50;;;8.70;;
1831;SDS011;1680;48.106;11.708;2022-08-25T14:16:10;9.93;;;8.93;;
1831;SDS011;1680;48.106;11.708;2022-08-25T14:18:38;16.13;;;13.10;;
1831;SDS011;1680;48.106;11.708;2022-08-25T14:21:10;9.67;;;8.87;;
1831;SDS011;1680;48.106;11.708;2022-08-25T14:23:38;10.83;;;9.80;;
1831;SDS011;1680;48.106;11.708;2022-08-25T14:26:04;11.30;;;8.93;;
1831;SDS011;1680;48.106;11.708;2022-08-25T14:28:32;11.57;;;10.37;;
1831;SDS011;1680;48.106;11.708;2022-08-25T14:31:00;10.87;;;9.70;;
1831;SDS011;1680;48.106;11.708;2022-08-25T14:33:29;10.20;;;8.23;;
1831;SDS011;1680;48.106;11.708;2022-08-25T14:35:56;11.70;;;9.33;;
1831;SDS011;1680;48.106;11.708;2022-08-25T14:38:23;11.27;;;8.90;;
1831;SDS011;1680;48.106;11.708;2022-08-25T14:40:50;12.37;;;10.27;;
1831;SDS011;1680;48.106;11.708;2022-08-25T14:43:17;10.27;;;8.80;;
1831;SDS011;1680;48.106;11.708;2022-08-25T14:45:45;10.90;;;9.13;;
1831;SDS011;1680;48.106;11.708;2022-08-25T14:48:13;14.50;;;10.00;;
1831;SDS011;1680;48.106;11.708;2022-08-25T14:50:40;12.80;;;9.90;;
1831;SDS011;1680;48.106;11.708;2022-08-25T14:53:07;13.83;;;9.83;;
1831;SDS011;1680;48.106;11.708;2022-08-25T14:55:34;11.00;;;9.10;;
1831;SDS011;1680;48.106;11.708;2022-08-25T14:58:02;11.00;;;8.97;;
1831;SDS011;1680;48.106;11.708;2022-08-25T15:00:28;17.73;;;9.50;;
1831;SDS011;1680;48.106;11.708;2022-08-25T15:02:56;11.37;;;8.93;;
1831;SDS011;1680;48.106;11.708;2022-08-25T15:05:24;11.60;;;8.90;;
1831;SDS011;1680;48.106;11.708;2022-08-25T15:07:51;17.40;;;9.77;;
1831;SDS011;1680;48.106;11.708;2022-08-25T15:10:35;9.77;;;8.77;;
1831;SDS011;1680;48.106;11.708;2022-08-25T15:13:02;12.57;;;9.50;;
1831;SDS011;1680;48.106;11.708;2022-08-25T15:15:30;15.17;;;10.40;;
1831;SDS011;1680;48.106;11.708;2022-08-25T15:17:58;12.20;;;9.67;;
1831;SDS011;1680;48.106;11.708;2022-08-25T15:20:25;11.27;;;9.40;;
1831;SDS011;1680;48.106;11.708;2022-08-25T15:22:51;14.83;;;9.97;;
1831;SDS011;1680;48.106;11.708;2022-08-25T15:25:18;14.57;;;10.23;;
1831;SDS011;1680;48.106;11.708;2022-08-25T15:27:46;14.40;;;10.13;;